Regional Weather

 

KMKL - Jackson, TN, USA
Distance from station: WNW 50mi, 81km
Updated: Thu, Aug-16-2018 1:53pm CDT
Mostly cloudy
Mostly cloudy
 Wind from S
Wind: S 6 mph , 9 km/h
Temperature: 75°F , 24°C
Dew Point: 75°F , 24°C
Humidity: 100%
Barometer: 30.04 inHg , 1017.3 hPa
Clouds: Mostly cloudy
Visibility: 10 miles , 16 km
Cloud details: Partly cloudy 7000 ft
Mostly cloudy 9000 ft
2018/08/16 18:53 KMKL 161853Z 17005KT 10SM SCT070 BKN090 24/24 A3004 RMK AO2 RAE07 SLP167 P0000 T02440239
KMEM - Memphis, TN, USA
Distance from station: W 108mi, 173km
Updated: Thu, Aug-16-2018 1:54pm CDT
Mostly cloudy
Mostly cloudy
 Wind from SSW
Wind: SSW 8 mph , 13 km/h
Temperature: 90°F , 32°C
Heat Index: 107°F , 42°C
Dew Point: 79°F , 26°C
Humidity: 71%
Barometer: 30.02 inHg , 1016.6 hPa
Clouds: Mostly cloudy
Visibility: 10 miles , 16 km
Cloud details: Few Clouds 3500 ft
Partly cloudy 10000 ft
Mostly cloudy 25000 ft
2018/08/16 18:54 KMEM 161854Z 21007KT 10SM FEW035 SCT100 BKN250 32/26 A3002 RMK AO2 SLP161 T03220256
 
KBNA - Nashville, TN, USA
Distance from station: NE 97mi, 157km
Updated: Thu, Aug-16-2018 2:06pm CDT
Light thunderstorm, Rain, Overcast
Light thunderstorm, Rain, Overcast
 Wind from SW
Wind: SW 12 mph , 19 km/h, Gust: 16 mph , 26 km/h
Temperature: 77°F , 25°C
Dew Point: 72°F , 22°C
Humidity: 83%
Barometer: 30.10 inHg , 1019.3 hPa
Summary: Light thunderstorm, Rain
Clouds: Overcast
Visibility: 4 miles , 6 km
Cloud details: Partly cloudy 3700 ft
Mostly cloudy 7000 ft
Mostly cloudy 9000 ft
Overcast 15000 ft
2018/08/16 19:06 KBNA 161906Z 22010G14KT 4SM -TSRA SCT037CB BKN070 BKN090 OVC150 25/22 A3010 RMK AO2 LTG DSNT ALQDS TSB00 FRQ LTGICCG OHD TS OHD MOV E P0005 T02500222 $
KCKV - Clarksville, TN, USA
Distance from station: NNE 99mi, 159km
Updated: Thu, Aug-16-2018 1:52pm CDT
Clear
Clear
 Wind from SW
Wind: SW 13 mph , 20 km/h, Gust: 23 mph , 37 km/h
Temperature: 84°F , 29°C
Heat Index: 88°F , 31°C
Dew Point: 70°F , 21°C
Humidity: 62%
Barometer: 30.05 inHg , 1017.6 hPa
Clouds: Clear
Visibility: 10 miles , 16 km
2018/08/16 18:52 KCKV 161852Z AUTO 22011G20KT 200V270 10SM CLR 29/21 A3005 RMK AO2 SLP168 T02890206
 
KPAH - Paducah, KY, USA
Distance from station: NNW 128mi, 205km
Updated: Thu, Aug-16-2018 1:53pm CDT
Mostly cloudy
Mostly cloudy
 Wind from SW
Wind: SW 7 mph , 11 km/h, Gust: 18 mph , 30 km/h
Temperature: 88°F , 31°C
Heat Index: 96°F , 36°C
Dew Point: 73°F , 23°C
Humidity: 62%
Barometer: 29.99 inHg , 1015.6 hPa
Clouds: Mostly cloudy
Visibility: 10 miles , 16 km
Cloud details: Partly cloudy 3000 ft
Partly cloudy 4100 ft
Mostly cloudy 6000 ft
2018/08/16 18:53 KPAH 161853Z 22006G16KT 10SM SCT030 SCT041 BKN060 31/23 A2999 RMK AO2 SLP150 T03110233
KCHA - Chattanooga, TN, USA
Distance from station: E 165mi, 265km
Updated: Thu, Aug-16-2018 1:53pm CDT
Mostly cloudy
Mostly cloudy
 Wind from SSE
Wind: SSE 12 mph , 19 km/h
Temperature: 90°F , 32°C
Heat Index: 96°F , 36°C
Dew Point: 70°F , 21°C
Humidity: 52%
Barometer: 30.12 inHg , 1020 hPa
Clouds: Mostly cloudy
Visibility: 10 miles , 16 km
Cloud details: Partly cloudy 4400 ft
Partly cloudy 6000 ft
Mostly cloudy 15000 ft
Mostly cloudy 25000 ft
2018/08/16 18:53 KCHA 161853Z 16010KT 10SM SCT044 SCT060 BKN150 BKN250 32/21 A3012 RMK AO2 SLP189 T03220211
 
KTYS - Knoxville, TN, USA
Distance from station: E 234mi, 377km
Updated: Thu, Aug-16-2018 1:53pm CDT
Partly cloudy
Partly cloudy
 Wind from SW
Wind: SW 14 mph , 22 km/h, Gust: 22 mph , 35 km/h
Temperature: 90°F , 32°C
Heat Index: 96°F , 36°C
Dew Point: 70°F , 21°C
Humidity: 52%
Barometer: 30.13 inHg , 1020.3 hPa
Clouds: Partly cloudy
Visibility: 10 miles , 16 km
Cloud details: Partly cloudy 4500 ft
Partly cloudy 25000 ft
2018/08/16 18:53 KTYS 161853Z 22012G19KT 10SM SCT045 SCT250 32/21 A3013 RMK AO2 SLP190 T03170211
KLIT - Little Rock, AR, USA
Distance from station: W 240mi, 386km
Updated: Thu, Aug-16-2018 1:53pm CDT
Mostly cloudy
Mostly cloudy
 Wind from SW
Wind: SW 12 mph , 19 km/h, Gust: 20 mph , 31 km/h
Temperature: 91°F , 33°C
Heat Index: 104°F , 40°C
Dew Point: 77°F , 25°C
Humidity: 63%
Barometer: 30.01 inHg , 1016.3 hPa
Clouds: Mostly cloudy
Visibility: 10 miles , 16 km
Cloud details: Few Clouds 4000 ft
Partly cloudy 10000 ft
Mostly cloudy 25000 ft
2018/08/16 18:53 KLIT 161853Z 23010G17KT 10SM FEW040 SCT100 BKN250 33/25 A3001 RMK AO2 SLP160 ACC OHD T03330250

Refresh Page for latest data.